sensor_id;sensor_type;location;lat;lon;timestamp;temperature;humidity
36132;DHT22;22185;48.738;9.324;2023-03-01T00:01:39;0.10;99.90
36132;DHT22;22185;48.738;9.324;2023-03-01T00:03:41;0.10;99.90
36132;DHT22;22185;48.738;9.324;2023-03-01T00:05:44;0.10;99.90
36132;DHT22;22185;48.738;9.324;2023-03-01T00:07:46;0.10;99.90
36132;DHT22;22185;48.738;9.324;2023-03-01T00:09:48;0.00;99.90
36132;DHT22;22185;48.738;9.324;2023-03-01T00:11:50;0.00;99.90
36132;DHT22;22185;48.738;9.324;2023-03-01T00:13:54;0.10;99.90
36132;DHT22;22185;48.738;9.324;2023-03-01T00:15:56;0.00;99.90
36132;DHT22;22185;48.738;9.324;2023-03-01T00:17:58;0.10;99.90
36132;DHT22;22185;48.738;9.324;2023-03-01T00:19:59;0.10;99.90
36132;DHT22;22185;48.738;9.324;2023-03-01T00:22:01;0.10;99.90
36132;DHT22;22185;48.738;9.324;2023-03-01T00:24:03;0.10;99.90
36132;DHT22;22185;48.738;9.324;2023-03-01T00:26:09;0.00;99.90
36132;DHT22;22185;48.738;9.324;2023-03-01T00:28:11;-0.10;99.90
36132;DHT22;22185;48.738;9.324;2023-03-01T00:30:12;-0.10;99.90
36132;DHT22;22185;48.738;9.324;2023-03-01T00:32:14;-0.10;99.90
36132;DHT22;22185;48.738;9.324;2023-03-01T00:34:15;-0.20;99.90
36132;DHT22;22185;48.738;9.324;2023-03-01T00:36:17;-0.10;99.90
36132;DHT22;22185;48.738;9.324;2023-03-01T00:38:19;-0.20;99.90
36132;DHT22;22185;48.738;9.324;2023-03-01T00:40:21;-0.30;99.90
36132;DHT22;22185;48.738;9.324;2023-03-01T00:42:22;-0.30;99.90
36132;DHT22;22185;48.738;9.324;2023-03-01T00:44:24;-0.30;99.90
36132;DHT22;22185;48.738;9.324;2023-03-01T00:46:26;-0.30;99.90
36132;DHT22;22185;48.738;9.324;2023-03-01T00:48:28;-0.30;99.90
36132;DHT22;22185;48.738;9.324;2023-03-01T00:50:30;-0.20;99.90
36132;DHT22;22185;48.738;9.324;2023-03-01T00:52:31;-0.10;99.90
36132;DHT22;22185;48.738;9.324;2023-03-01T00:54:33;-0.20;99.90
36132;DHT22;22185;48.738;9.324;2023-03-01T00:56:35;-0.20;99.90
36132;DHT22;22185;48.738;9.324;2023-03-01T00:58:37;-0.20;99.90
36132;DHT22;22185;48.738;9.324;2023-03-01T01:00:39;-0.20;99.90
36132;DHT22;22185;48.738;9.324;2023-03-01T01:02:40;-0.30;99.90
36132;DHT22;22185;48.738;9.324;2023-03-01T01:04:42;-0.30;99.90
36132;DHT22;22185;48.738;9.324;2023-03-01T01:06:44;-0.40;99.90
36132;DHT22;22185;48.738;9.324;2023-03-01T01:08:46;-0.30;99.90
36132;DHT22;22185;48.738;9.324;2023-03-01T01:10:48;-0.40;99.90
36132;DHT22;22185;48.738;9.324;2023-03-01T01:12:49;-0.40;99.90
36132;DHT22;22185;48.738;9.324;2023-03-01T01:14:51;-0.40;99.90
36132;DHT22;22185;48.738;9.324;2023-03-01T01:16:53;-0.40;99.90
36132;DHT22;22185;48.738;9.324;2023-03-01T01:18:55;-0.40;99.90
36132;DHT22;22185;48.738;9.324;2023-03-01T01:20:57;-0.40;99.90
36132;DHT22;22185;48.738;9.324;2023-03-01T01:22:59;-0.40;99.90
36132;DHT22;22185;48.738;9.324;2023-03-01T01:25:00;-0.40;99.90
36132;DHT22;22185;48.738;9.324;2023-03-01T01:27:02;-0.50;99.90
36132;DHT22;22185;48.738;9.324;2023-03-01T01:29:04;-0.50;99.90
36132;DHT22;22185;48.738;9.324;2023-03-01T01:31:06;-0.50;99.90
36132;DHT22;22185;48.738;9.324;2023-03-01T01:33:08;-0.60;99.90
36132;DHT22;22185;48.738;9.324;2023-03-01T01:35:09;-0.60;99.90
36132;DHT22;22185;48.738;9.324;2023-03-01T01:37:11;-0.50;99.90
36132;DHT22;22185;48.738;9.324;2023-03-01T01:39:13;-0.50;99.90
36132;DHT22;22185;48.738;9.324;2023-03-01T01:41:14;-0.40;99.90
36132;DHT22;22185;48.738;9.324;2023-03-01T01:43:27;-0.20;99.90
36132;DHT22;22185;48.738;9.324;2023-03-01T01:47:31;-0.10;99.90
36132;DHT22;22185;48.738;9.324;2023-03-01T01:49:35;0.00;99.90
36132;DHT22;22185;48.738;9.324;2023-03-01T01:51:42;0.00;99.90
36132;DHT22;22185;48.738;9.324;2023-03-01T01:53:45;0.10;99.90
36132;DHT22;22185;48.738;9.324;2023-03-01T01:55:49;0.20;99.90
36132;DHT22;22185;48.738;9.324;2023-03-01T01:57:53;0.30;99.90
36132;DHT22;22185;48.738;9.324;2023-03-01T01:59:56;0.30;99.90
36132;DHT22;22185;48.738;9.324;2023-03-01T02:01:59;0.30;99.90
36132;DHT22;22185;48.738;9.324;2023-03-01T02:04:02;0.40;99.90
36132;DHT22;22185;48.738;9.324;2023-03-01T02:06:10;0.40;99.90
36132;DHT22;22185;48.738;9.324;2023-03-01T02:08:14;0.50;99.90
36132;DHT22;22185;48.738;9.324;2023-03-01T02:10:15;0.50;99.90
36132;DHT22;22185;48.738;9.324;2023-03-01T02:12:19;0.60;99.90
36132;DHT22;22185;48.738;9.324;2023-03-01T02:14:21;0.60;99.90
36132;DHT22;22185;48.738;9.324;2023-03-01T02:16:23;0.70;99.90
36132;DHT22;22185;48.738;9.324;2023-03-01T02:18:25;0.70;99.90
36132;DHT22;22185;48.738;9.324;2023-03-01T02:22:29;0.70;99.90
36132;DHT22;22185;48.738;9.324;2023-03-01T02:24:34;0.80;99.90
36132;DHT22;22185;48.738;9.324;2023-03-01T02:28:42;0.80;99.90
36132;DHT22;22185;48.738;9.324;2023-03-01T02:30:46;0.80;99.90
36132;DHT22;22185;48.738;9.324;2023-03-01T02:33:07;0.80;99.90
36132;DHT22;22185;48.738;9.324;2023-03-01T02:35:10;0.80;99.90
36132;DHT22;22185;48.738;9.324;2023-03-01T02:37:13;0.80;99.90
36132;DHT22;22185;48.738;9.324;2023-03-01T02:39:26;0.80;99.90
36132;DHT22;22185;48.738;9.324;2023-03-01T02:41:31;0.90;99.90
36132;DHT22;22185;48.738;9.324;2023-03-01T02:43:33;0.90;99.90
36132;DHT22;22185;48.738;9.324;2023-03-01T02:45:35;0.90;99.90
36132;DHT22;22185;48.738;9.324;2023-03-01T02:47:37;0.90;99.90
36132;DHT22;22185;48.738;9.324;2023-03-01T02:49:39;0.90;99.90
36132;DHT22;22185;48.738;9.324;2023-03-01T02:54:08;0.90;99.90
36132;DHT22;22185;48.738;9.324;2023-03-01T02:56:11;0.90;99.90
36132;DHT22;22185;48.738;9.324;2023-03-01T02:58:14;1.00;99.90
36132;DHT22;22185;48.738;9.324;2023-03-01T03:00:17;1.00;99.90
36132;DHT22;22185;48.738;9.324;2023-03-01T03:02:26;1.00;99.90
36132;DHT22;22185;48.738;9.324;2023-03-01T03:04:37;1.00;99.90
36132;DHT22;22185;48.738;9.324;2023-03-01T03:06:39;1.00;99.90
36132;DHT22;22185;48.738;9.324;2023-03-01T03:08:41;1.10;99.90
36132;DHT22;22185;48.738;9.324;2023-03-01T03:10:42;1.00;99.90
36132;DHT22;22185;48.738;9.324;2023-03-01T03:12:48;1.00;99.90
36132;DHT22;22185;48.738;9.324;2023-03-01T03:14:50;1.10;99.90
36132;DHT22;22185;48.738;9.324;2023-03-01T03:16:51;1.00;99.90
36132;DHT22;22185;48.738;9.324;2023-03-01T03:18:53;1.00;99.90
36132;DHT22;22185;48.738;9.324;2023-03-01T03:20:55;1.10;99.90
36132;DHT22;22185;48.738;9.324;2023-03-01T03:22:57;1.10;99.90
36132;DHT22;22185;48.738;9.324;2023-03-01T03:24:59;1.10;99.90
36132;DHT22;22185;48.738;9.324;2023-03-01T03:27:01;1.10;99.90
36132;DHT22;22185;48.738;9.324;2023-03-01T03:29:03;1.10;99.90
36132;DHT22;22185;48.738;9.324;2023-03-01T03:31:05;1.20;99.90
36132;DHT22;22185;48.738;9.324;2023-03-01T03:33:07;1.20;99.90
36132;DHT22;22185;48.738;9.324;2023-03-01T03:35:13;1.20;99.90
36132;DHT22;22185;48.738;9.324;2023-03-01T03:37:15;1.20;99.90
36132;DHT22;22185;48.738;9.324;2023-03-01T03:39:35;1.30;99.90
36132;DHT22;22185;48.738;9.324;2023-03-01T03:41:37;1.40;99.90
36132;DHT22;22185;48.738;9.324;2023-03-01T03:43:39;1.30;99.90
36132;DHT22;22185;48.738;9.324;2023-03-01T03:45:43;1.30;99.90
36132;DHT22;22185;48.738;9.324;2023-03-01T03:47:44;1.20;99.90
36132;DHT22;22185;48.738;9.324;2023-03-01T03:49:46;1.30;99.90
36132;DHT22;22185;48.738;9.324;2023-03-01T03:51:48;1.30;99.90
36132;DHT22;22185;48.738;9.324;2023-03-01T03:53:49;1.30;99.90
36132;DHT22;22185;48.738;9.324;2023-03-01T03:55:51;1.30;99.90
36132;DHT22;22185;48.738;9.324;2023-03-01T03:57:53;1.20;99.90
36132;DHT22;22185;48.738;9.324;2023-03-01T03:59:55;1.30;99.90
36132;DHT22;22185;48.738;9.324;2023-03-01T04:01:56;1.30;99.90
36132;DHT22;22185;48.738;9.324;2023-03-01T04:03:58;1.30;99.90
36132;DHT22;22185;48.738;9.324;2023-03-01T04:06:05;1.30;99.90
36132;DHT22;22185;48.738;9.324;2023-03-01T04:08:07;1.40;99.90
36132;DHT22;22185;48.738;9.324;2023-03-01T04:10:10;1.40;99.90
36132;DHT22;22185;48.738;9.324;2023-03-01T04:12:12;1.30;99.90
36132;DHT22;22185;48.738;9.324;2023-03-01T04:14:14;1.30;99.90
36132;DHT22;22185;48.738;9.324;2023-03-01T04:16:16;1.30;99.90
36132;DHT22;22185;48.738;9.324;2023-03-01T04:18:18;1.40;99.90
36132;DHT22;22185;48.738;9.324;2023-03-01T04:20:21;1.50;99.90
36132;DHT22;22185;48.738;9.324;2023-03-01T04:22:26;1.40;99.90
36132;DHT22;22185;48.738;9.324;2023-03-01T04:24:30;1.40;99.90
36132;DHT22;22185;48.738;9.324;2023-03-01T04:26:32;1.40;99.90
36132;DHT22;22185;48.738;9.324;2023-03-01T04:28:35;1.40;99.90
36132;DHT22;22185;48.738;9.324;2023-03-01T04:30:37;1.30;99.90
36132;DHT22;22185;48.738;9.324;2023-03-01T04:32:39;1.40;99.90
36132;DHT22;22185;48.738;9.324;2023-03-01T04:34:41;1.40;99.90
36132;DHT22;22185;48.738;9.324;2023-03-01T04:36:43;1.30;99.90
36132;DHT22;22185;48.738;9.324;2023-03-01T04:38:45;1.40;99.90
36132;DHT22;22185;48.738;9.324;2023-03-01T04:40:50;1.40;99.90
36132;DHT22;22185;48.738;9.324;2023-03-01T04:42:51;1.40;99.90
36132;DHT22;22185;48.738;9.324;2023-03-01T04:44:53;1.40;99.90
36132;DHT22;22185;48.738;9.324;2023-03-01T04:46:55;1.40;99.90
36132;DHT22;22185;48.738;9.324;2023-03-01T04:48:56;1.30;99.90
36132;DHT22;22185;48.738;9.324;2023-03-01T04:50:58;1.40;99.90
36132;DHT22;22185;48.738;9.324;2023-03-01T04:53:00;1.40;99.90
36132;DHT22;22185;48.738;9.324;2023-03-01T04:55:02;1.40;99.90
36132;DHT22;22185;48.738;9.324;2023-03-01T04:57:04;1.50;99.90
36132;DHT22;22185;48.738;9.324;2023-03-01T04:59:06;1.50;99.90
36132;DHT22;22185;48.738;9.324;2023-03-01T05:01:16;1.50;99.90
36132;DHT22;22185;48.738;9.324;2023-03-01T05:03:19;1.40;99.90
36132;DHT22;22185;48.738;9.324;2023-03-01T05:05:28;1.50;99.90
36132;DHT22;22185;48.738;9.324;2023-03-01T05:07:29;1.50;99.90
36132;DHT22;22185;48.738;9.324;2023-03-01T05:09:31;1.50;99.90
36132;DHT22;22185;48.738;9.324;2023-03-01T05:11:33;1.40;99.90
36132;DHT22;22185;48.738;9.324;2023-03-01T05:13:37;1.50;99.90
36132;DHT22;22185;48.738;9.324;2023-03-01T05:15:39;1.40;99.90
36132;DHT22;22185;48.738;9.324;2023-03-01T05:17:41;1.40;99.90
36132;DHT22;22185;48.738;9.324;2023-03-01T05:19:43;1.40;99.90
36132;DHT22;22185;48.738;9.324;2023-03-01T05:21:45;1.40;99.90
36132;DHT22;22185;48.738;9.324;2023-03-01T05:24:05;1.30;99.90
36132;DHT22;22185;48.738;9.324;2023-03-01T05:26:12;1.30;99.90
36132;DHT22;22185;48.738;9.324;2023-03-01T05:28:28;1.40;99.90
36132;DHT22;22185;48.738;9.324;2023-03-01T05:30:31;1.50;99.90
36132;DHT22;22185;48.738;9.324;2023-03-01T05:32:33;1.50;99.90
36132;DHT22;22185;48.738;9.324;2023-03-01T05:34:35;1.50;99.90
36132;DHT22;22185;48.738;9.324;2023-03-01T05:36:37;1.50;99.90
36132;DHT22;22185;48.738;9.324;2023-03-01T05:38:39;1.60;99.90
36132;DHT22;22185;48.738;9.324;2023-03-01T05:40:41;1.60;99.90
36132;DHT22;22185;48.738;9.324;2023-03-01T05:42:44;1.50;99.90
36132;DHT22;22185;48.738;9.324;2023-03-01T05:44:46;1.50;99.90
36132;DHT22;22185;48.738;9.324;2023-03-01T05:46:48;1.60;99.90
36132;DHT22;22185;48.738;9.324;2023-03-01T05:48:50;1.60;99.90
36132;DHT22;22185;48.738;9.324;2023-03-01T05:50:52;1.60;99.90
36132;DHT22;22185;48.738;9.324;2023-03-01T05:54:58;1.50;99.90
36132;DHT22;22185;48.738;9.324;2023-03-01T05:57:00;1.50;99.90
36132;DHT22;22185;48.738;9.324;2023-03-01T05:59:02;1.50;99.90
36132;DHT22;22185;48.738;9.324;2023-03-01T06:01:05;1.50;99.90
36132;DHT22;22185;48.738;9.324;2023-03-01T06:03:06;1.50;99.90
36132;DHT22;22185;48.738;9.324;2023-03-01T06:05:09;1.60;99.90
36132;DHT22;22185;48.738;9.324;2023-03-01T06:07:11;1.50;99.90
36132;DHT22;22185;48.738;9.324;2023-03-01T06:09:13;1.60;99.90
36132;DHT22;22185;48.738;9.324;2023-03-01T06:11:15;1.60;99.90
36132;DHT22;22185;48.738;9.324;2023-03-01T06:13:17;1.60;99.90
36132;DHT22;22185;48.738;9.324;2023-03-01T06:15:19;1.70;99.90
36132;DHT22;22185;48.738;9.324;2023-03-01T06:17:20;1.60;99.90
36132;DHT22;22185;48.738;9.324;2023-03-01T06:19:22;1.60;99.90
36132;DHT22;22185;48.738;9.324;2023-03-01T06:21:23;1.60;99.90
36132;DHT22;22185;48.738;9.324;2023-03-01T06:23:25;1.60;99.90
36132;DHT22;22185;48.738;9.324;2023-03-01T06:25:27;1.60;99.90
36132;DHT22;22185;48.738;9.324;2023-03-01T06:27:28;1.50;99.90
36132;DHT22;22185;48.738;9.324;2023-03-01T06:29:30;1.50;99.90
36132;DHT22;22185;48.738;9.324;2023-03-01T06:31:32;1.50;99.90
36132;DHT22;22185;48.738;9.324;2023-03-01T06:33:33;1.60;99.90
36132;DHT22;22185;48.738;9.324;2023-03-01T06:35:35;1.60;99.90
36132;DHT22;22185;48.738;9.324;2023-03-01T06:37:37;1.50;99.90
36132;DHT22;22185;48.738;9.324;2023-03-01T06:39:38;1.50;99.90
36132;DHT22;22185;48.738;9.324;2023-03-01T06:41:40;1.50;99.90
36132;DHT22;22185;48.738;9.324;2023-03-01T06:43:42;1.60;99.90
36132;DHT22;22185;48.738;9.324;2023-03-01T06:45:43;1.50;99.90
36132;DHT22;22185;48.738;9.324;2023-03-01T06:47:45;1.50;99.90
36132;DHT22;22185;48.738;9.324;2023-03-01T06:49:47;1.50;99.90
36132;DHT22;22185;48.738;9.324;2023-03-01T06:51:49;1.50;99.90
36132;DHT22;22185;48.738;9.324;2023-03-01T06:53:50;1.40;99.90
36132;DHT22;22185;48.738;9.324;2023-03-01T06:55:55;1.40;99.90
36132;DHT22;22185;48.738;9.324;2023-03-01T06:57:58;1.50;99.90
36132;DHT22;22185;48.738;9.324;2023-03-01T06:59:59;1.50;99.90
36132;DHT22;22185;48.738;9.324;2023-03-01T07:02:01;1.50;99.90
36132;DHT22;22185;48.738;9.324;2023-03-01T07:04:03;1.40;99.90
36132;DHT22;22185;48.738;9.324;2023-03-01T07:06:05;1.40;99.90
36132;DHT22;22185;48.738;9.324;2023-03-01T07:08:07;1.30;99.90
36132;DHT22;22185;48.738;9.324;2023-03-01T07:10:10;1.30;99.90
36132;DHT22;22185;48.738;9.324;2023-03-01T07:12:11;1.30;99.90
36132;DHT22;22185;48.738;9.324;2023-03-01T07:14:13;1.40;99.90
36132;DHT22;22185;48.738;9.324;2023-03-01T07:16:15;1.40;99.90
36132;DHT22;22185;48.738;9.324;2023-03-01T07:18:16;1.30;99.90
36132;DHT22;22185;48.738;9.324;2023-03-01T07:20:18;1.40;99.90
36132;DHT22;22185;48.738;9.324;2023-03-01T07:22:20;1.40;99.90
36132;DHT22;22185;48.738;9.324;2023-03-01T07:24:22;1.40;99.90
36132;DHT22;22185;48.738;9.324;2023-03-01T07:26:24;1.40;99.90
36132;DHT22;22185;48.738;9.324;2023-03-01T07:28:27;1.40;99.90
36132;DHT22;22185;48.738;9.324;2023-03-01T07:30:28;1.40;99.90
36132;DHT22;22185;48.738;9.324;2023-03-01T07:32:30;1.40;99.90
36132;DHT22;22185;48.738;9.324;2023-03-01T07:34:32;1.60;99.90
36132;DHT22;22185;48.738;9.324;2023-03-01T07:36:34;1.70;99.90
36132;DHT22;22185;48.738;9.324;2023-03-01T07:38:35;1.60;99.90
36132;DHT22;22185;48.738;9.324;2023-03-01T07:40:37;1.60;99.90
36132;DHT22;22185;48.738;9.324;2023-03-01T07:42:39;1.60;99.90
36132;DHT22;22185;48.738;9.324;2023-03-01T07:44:41;1.60;99.90
36132;DHT22;22185;48.738;9.324;2023-03-01T07:46:43;1.70;99.90
36132;DHT22;22185;48.738;9.324;2023-03-01T07:48:44;1.70;99.90
36132;DHT22;22185;48.738;9.324;2023-03-01T07:50:46;1.70;99.90
36132;DHT22;22185;48.738;9.324;2023-03-01T07:52:48;1.70;99.90
36132;DHT22;22185;48.738;9.324;2023-03-01T07:54:50;1.80;99.90
36132;DHT22;22185;48.738;9.324;2023-03-01T07:56:51;1.80;99.90
36132;DHT22;22185;48.738;9.324;2023-03-01T07:58:53;1.80;99.90
36132;DHT22;22185;48.738;9.324;2023-03-01T08:00:55;1.90;99.90
36132;DHT22;22185;48.738;9.324;2023-03-01T08:03:00;1.90;99.90
36132;DHT22;22185;48.738;9.324;2023-03-01T08:05:02;2.00;99.90
36132;DHT22;22185;48.738;9.324;2023-03-01T08:07:05;2.00;99.90
36132;DHT22;22185;48.738;9.324;2023-03-01T08:09:06;2.10;99.90
36132;DHT22;22185;48.738;9.324;2023-03-01T08:11:11;2.10;99.90
36132;DHT22;22185;48.738;9.324;2023-03-01T08:13:13;2.20;99.90
36132;DHT22;22185;48.738;9.324;2023-03-01T08:15:15;2.20;99.90
36132;DHT22;22185;48.738;9.324;2023-03-01T08:17:19;2.20;99.90
36132;DHT22;22185;48.738;9.324;2023-03-01T08:19:20;2.30;99.90
36132;DHT22;22185;48.738;9.324;2023-03-01T08:21:22;2.30;99.90
36132;DHT22;22185;48.738;9.324;2023-03-01T08:23:24;2.30;99.90
36132;DHT22;22185;48.738;9.324;2023-03-01T08:25:27;2.40;99.90
36132;DHT22;22185;48.738;9.324;2023-03-01T08:27:30;2.40;99.90
36132;DHT22;22185;48.738;9.324;2023-03-01T08:29:33;2.50;99.90
36132;DHT22;22185;48.738;9.324;2023-03-01T08:31:36;2.40;99.90
36132;DHT22;22185;48.738;9.324;2023-03-01T08:33:38;2.50;99.90
36132;DHT22;22185;48.738;9.324;2023-03-01T08:35:39;2.50;99.90
36132;DHT22;22185;48.738;9.324;2023-03-01T08:37:41;2.50;99.90
36132;DHT22;22185;48.738;9.324;2023-03-01T08:39:43;2.60;99.90
36132;DHT22;22185;48.738;9.324;2023-03-01T08:41:45;2.70;99.90
36132;DHT22;22185;48.738;9.324;2023-03-01T08:43:48;2.80;99.90
36132;DHT22;22185;48.738;9.324;2023-03-01T08:45:50;2.80;99.90
36132;DHT22;22185;48.738;9.324;2023-03-01T08:47:52;2.90;99.90
36132;DHT22;22185;48.738;9.324;2023-03-01T08:49:54;3.00;99.90
36132;DHT22;22185;48.738;9.324;2023-03-01T08:51:56;3.00;99.90
36132;DHT22;22185;48.738;9.324;2023-03-01T08:53:58;3.10;99.90
36132;DHT22;22185;48.738;9.324;2023-03-01T08:56:00;3.10;99.90
36132;DHT22;22185;48.738;9.324;2023-03-01T08:58:02;3.10;99.90
36132;DHT22;22185;48.738;9.324;2023-03-01T09:00:04;3.10;99.90
36132;DHT22;22185;48.738;9.324;2023-03-01T09:02:11;3.30;99.90
36132;DHT22;22185;48.738;9.324;2023-03-01T09:04:14;3.30;99.90
36132;DHT22;22185;48.738;9.324;2023-03-01T09:06:16;3.40;99.90
36132;DHT22;22185;48.738;9.324;2023-03-01T09:08:19;3.40;99.90
36132;DHT22;22185;48.738;9.324;2023-03-01T09:10:21;3.30;99.90
36132;DHT22;22185;48.738;9.324;2023-03-01T09:12:23;3.40;99.90
36132;DHT22;22185;48.738;9.324;2023-03-01T09:14:28;3.50;99.90
36132;DHT22;22185;48.738;9.324;2023-03-01T09:16:30;3.50;99.90
36132;DHT22;22185;48.738;9.324;2023-03-01T09:18:37;3.60;99.90
36132;DHT22;22185;48.738;9.324;2023-03-01T09:20:39;3.60;99.90
36132;DHT22;22185;48.738;9.324;2023-03-01T09:22:40;3.60;99.90
36132;DHT22;22185;48.738;9.324;2023-03-01T09:24:42;3.70;99.90
36132;DHT22;22185;48.738;9.324;2023-03-01T09:26:44;3.70;99.90
36132;DHT22;22185;48.738;9.324;2023-03-01T09:28:51;3.70;99.90
36132;DHT22;22185;48.738;9.324;2023-03-01T09:30:57;3.80;99.90
36132;DHT22;22185;48.738;9.324;2023-03-01T09:32:59;4.00;99.90
36132;DHT22;22185;48.738;9.324;2023-03-01T09:35:01;4.10;99.90
36132;DHT22;22185;48.738;9.324;2023-03-01T09:37:05;4.10;99.90
36132;DHT22;22185;48.738;9.324;2023-03-01T09:39:07;4.30;99.90
36132;DHT22;22185;48.738;9.324;2023-03-01T09:43:35;4.40;99.90
36132;DHT22;22185;48.738;9.324;2023-03-01T09:45:41;4.40;99.90
36132;DHT22;22185;48.738;9.324;2023-03-01T09:47:45;4.60;99.90
36132;DHT22;22185;48.738;9.324;2023-03-01T10:04:52;5.30;99.90
36132;DHT22;22185;48.738;9.324;2023-03-01T10:07:07;5.60;99.90
36132;DHT22;22185;48.738;9.324;2023-03-01T10:09:16;5.50;99.90
36132;DHT22;22185;48.738;9.324;2023-03-01T10:11:20;5.60;99.90
36132;DHT22;22185;48.738;9.324;2023-03-01T10:13:37;5.90;99.90
36132;DHT22;22185;48.738;9.324;2023-03-01T10:16:01;5.80;99.90
36132;DHT22;22185;48.738;9.324;2023-03-01T10:18:09;6.00;99.90
36132;DHT22;22185;48.738;9.324;2023-03-01T10:20:33;6.10;99.90
36132;DHT22;22185;48.738;9.324;2023-03-01T10:22:45;6.00;99.90
36132;DHT22;22185;48.738;9.324;2023-03-01T10:24:56;6.10;99.90
36132;DHT22;22185;48.738;9.324;2023-03-01T10:29:46;6.40;99.90
36132;DHT22;22185;48.738;9.324;2023-03-01T10:31:52;5.80;99.90
36132;DHT22;22185;48.738;9.324;2023-03-01T10:33:59;6.10;99.90
36132;DHT22;22185;48.738;9.324;2023-03-01T10:36:02;6.20;99.90
36132;DHT22;22185;48.738;9.324;2023-03-01T10:38:05;6.30;99.90
36132;DHT22;22185;48.738;9.324;2023-03-01T10:40:10;6.60;99.90
36132;DHT22;22185;48.738;9.324;2023-03-01T10:42:19;7.00;99.90
36132;DHT22;22185;48.738;9.324;2023-03-01T10:46:43;7.10;99.90
36132;DHT22;22185;48.738;9.324;2023-03-01T10:48:46;7.40;99.90
36132;DHT22;22185;48.738;9.324;2023-03-01T10:51:07;7.60;99.90
36132;DHT22;22185;48.738;9.324;2023-03-01T10:55:34;7.70;99.90
36132;DHT22;22185;48.738;9.324;2023-03-01T10:57:39;7.90;99.90
36132;DHT22;22185;48.738;9.324;2023-03-01T10:59:43;8.10;99.90
36132;DHT22;22185;48.738;9.324;2023-03-01T11:01:45;8.30;99.90
36132;DHT22;22185;48.738;9.324;2023-03-01T11:03:54;8.30;99.90
36132;DHT22;22185;48.738;9.324;2023-03-01T11:06:06;8.30;99.90
36132;DHT22;22185;48.738;9.324;2023-03-01T11:08:07;8.20;99.90
36132;DHT22;22185;48.738;9.324;2023-03-01T11:10:15;7.90;99.90
36132;DHT22;22185;48.738;9.324;2023-03-01T11:12:27;8.00;99.90
36132;DHT22;22185;48.738;9.324;2023-03-01T11:14:38;8.30;99.90
36132;DHT22;22185;48.738;9.324;2023-03-01T11:16:43;8.50;99.90
36132;DHT22;22185;48.738;9.324;2023-03-01T11:18:56;8.70;99.90
36132;DHT22;22185;48.738;9.324;2023-03-01T11:20:58;8.80;99.90
36132;DHT22;22185;48.738;9.324;2023-03-01T11:23:08;8.50;99.90
36132;DHT22;22185;48.738;9.324;2023-03-01T11:25:12;8.80;99.90
36132;DHT22;22185;48.738;9.324;2023-03-01T11:27:25;8.70;99.90
36132;DHT22;22185;48.738;9.324;2023-03-01T11:31:43;8.30;99.90
36132;DHT22;22185;48.738;9.324;2023-03-01T11:34:05;8.70;99.90
36132;DHT22;22185;48.738;9.324;2023-03-01T11:38:29;8.90;99.90
36132;DHT22;22185;48.738;9.324;2023-03-01T11:40:35;8.80;99.90
36132;DHT22;22185;48.738;9.324;2023-03-01T11:44:44;9.30;99.90
36132;DHT22;22185;48.738;9.324;2023-03-01T11:55:53;9.50;99.90
36132;DHT22;22185;48.738;9.324;2023-03-01T12:04:36;9.70;99.90
36132;DHT22;22185;48.738;9.324;2023-03-01T12:06:55;10.80;99.90
36132;DHT22;22185;48.738;9.324;2023-03-01T12:15:32;10.30;99.90
36132;DHT22;22185;48.738;9.324;2023-03-01T12:17:45;10.70;99.90
36132;DHT22;22185;48.738;9.324;2023-03-01T12:24:10;11.20;99.90
36132;DHT22;22185;48.738;9.324;2023-03-01T12:26:28;11.10;99.90
36132;DHT22;22185;48.738;9.324;2023-03-01T12:28:34;11.90;99.90
36132;DHT22;22185;48.738;9.324;2023-03-01T12:37:54;13.00;99.90
36132;DHT22;22185;48.738;9.324;2023-03-01T12:40:13;13.00;99.90
36132;DHT22;22185;48.738;9.324;2023-03-01T12:44:24;16.20;96.30
36132;DHT22;22185;48.738;9.324;2023-03-01T12:46:36;16.70;90.30
36132;DHT22;22185;48.738;9.324;2023-03-01T12:48:58;16.70;88.50
36132;DHT22;22185;48.738;9.324;2023-03-01T12:51:03;15.80;85.60
36132;DHT22;22185;48.738;9.324;2023-03-01T12:53:10;15.40;87.90
36132;DHT22;22185;48.738;9.324;2023-03-01T12:55:29;16.70;87.90
36132;DHT22;22185;48.738;9.324;2023-03-01T12:57:42;17.20;82.70
36132;DHT22;22185;48.738;9.324;2023-03-01T13:04:01;16.60;83.10
36132;DHT22;22185;48.738;9.324;2023-03-01T13:08:56;16.10;80.80
36132;DHT22;22185;48.738;9.324;2023-03-01T13:11:02;15.60;79.50
36132;DHT22;22185;48.738;9.324;2023-03-01T13:17:39;19.00;79.20
36132;DHT22;22185;48.738;9.324;2023-03-01T13:19:42;18.80;75.70
36132;DHT22;22185;48.738;9.324;2023-03-01T13:21:57;19.00;76.30
36132;DHT22;22185;48.738;9.324;2023-03-01T13:23:58;18.50;75.40
36132;DHT22;22185;48.738;9.324;2023-03-01T13:32:35;18.00;72.90
36132;DHT22;22185;48.738;9.324;2023-03-01T13:34:46;18.60;70.10
36132;DHT22;22185;48.738;9.324;2023-03-01T13:36:49;17.80;72.00
36132;DHT22;22185;48.738;9.324;2023-03-01T13:40:57;16.70;80.40
36132;DHT22;22185;48.738;9.324;2023-03-01T13:43:22;15.50;73.80
36132;DHT22;22185;48.738;9.324;2023-03-01T13:47:32;17.60;74.00
36132;DHT22;22185;48.738;9.324;2023-03-01T13:51:55;18.00;72.20
36132;DHT22;22185;48.738;9.324;2023-03-01T13:53:58;18.10;70.90
36132;DHT22;22185;48.738;9.324;2023-03-01T13:56:02;18.10;74.50
36132;DHT22;22185;48.738;9.324;2023-03-01T14:00:36;18.70;69.30
36132;DHT22;22185;48.738;9.324;2023-03-01T14:05:17;19.70;72.40
36132;DHT22;22185;48.738;9.324;2023-03-01T14:07:20;19.10;68.10
36132;DHT22;22185;48.738;9.324;2023-03-01T14:09:23;18.80;67.20
36132;DHT22;22185;48.738;9.324;2023-03-01T14:13:45;18.90;67.20
36132;DHT22;22185;48.738;9.324;2023-03-01T14:16:03;18.80;66.90
36132;DHT22;22185;48.738;9.324;2023-03-01T14:18:08;18.20;68.50
36132;DHT22;22185;48.738;9.324;2023-03-01T14:20:22;18.60;68.30
36132;DHT22;22185;48.738;9.324;2023-03-01T14:22:25;19.30;68.90
36132;DHT22;22185;48.738;9.324;2023-03-01T14:24:28;19.40;67.20
36132;DHT22;22185;48.738;9.324;2023-03-01T14:26:31;19.30;68.90
36132;DHT22;22185;48.738;9.324;2023-03-01T14:28:33;17.90;66.10
36132;DHT22;22185;48.738;9.324;2023-03-01T14:30:43;17.50;70.90
36132;DHT22;22185;48.738;9.324;2023-03-01T14:32:51;18.50;70.00
36132;DHT22;22185;48.738;9.324;2023-03-01T14:34:53;18.40;67.20
36132;DHT22;22185;48.738;9.324;2023-03-01T14:36:55;18.40;69.40
36132;DHT22;22185;48.738;9.324;2023-03-01T14:38:57;19.00;67.40
36132;DHT22;22185;48.738;9.324;2023-03-01T14:41:16;18.90;68.20
36132;DHT22;22185;48.738;9.324;2023-03-01T14:43:20;17.60;69.20
36132;DHT22;22185;48.738;9.324;2023-03-01T14:45:24;17.70;72.20
36132;DHT22;22185;48.738;9.324;2023-03-01T14:47:33;18.90;69.90
36132;DHT22;22185;48.738;9.324;2023-03-01T14:49:35;19.30;70.90
36132;DHT22;22185;48.738;9.324;2023-03-01T14:51:39;19.50;69.30
36132;DHT22;22185;48.738;9.324;2023-03-01T14:53:41;19.70;67.80
36132;DHT22;22185;48.738;9.324;2023-03-01T14:55:52;19.20;67.90
36132;DHT22;22185;48.738;9.324;2023-03-01T14:57:54;18.40;68.70
36132;DHT22;22185;48.738;9.324;2023-03-01T14:59:58;18.30;68.80
36132;DHT22;22185;48.738;9.324;2023-03-01T15:02:01;17.90;68.60
36132;DHT22;22185;48.738;9.324;2023-03-01T15:04:03;17.70;68.80